sensor_id;sensor_type;location;lat;lon;timestamp;P1;durP1;ratioP1;P2;durP2;ratioP2
59233;SDS011;60776;51.702;7.462;2023-08-30T00:01:07;4.78;;;2.95;;
59233;SDS011;60776;51.702;7.462;2023-08-30T00:03:33;3.20;;;2.90;;
59233;SDS011;60776;51.702;7.462;2023-08-30T00:06:05;5.57;;;2.90;;
59233;SDS011;60776;51.702;7.462;2023-08-30T00:08:32;2.55;;;2.35;;
59233;SDS011;60776;51.702;7.462;2023-08-30T00:10:58;4.32;;;3.50;;
59233;SDS011;60776;51.702;7.462;2023-08-30T00:13:25;3.15;;;2.95;;
59233;SDS011;60776;51.702;7.462;2023-08-30T00:15:51;3.03;;;2.83;;
59233;SDS011;60776;51.702;7.462;2023-08-30T00:18:17;3.53;;;3.20;;
59233;SDS011;60776;51.702;7.462;2023-08-30T00:20:47;3.33;;;3.03;;
59233;SDS011;60776;51.702;7.462;2023-08-30T00:23:13;2.83;;;2.63;;
59233;SDS011;60776;51.702;7.462;2023-08-30T00:25:39;2.90;;;2.70;;
59233;SDS011;60776;51.702;7.462;2023-08-30T00:28:04;3.45;;;3.15;;
59233;SDS011;60776;51.702;7.462;2023-08-30T00:30:31;3.40;;;3.17;;
59233;SDS011;60776;51.702;7.462;2023-08-30T00:32:57;3.63;;;3.10;;
59233;SDS011;60776;51.702;7.462;2023-08-30T00:35:22;3.67;;;3.22;;
59233;SDS011;60776;51.702;7.462;2023-08-30T00:37:48;4.03;;;3.72;;
59233;SDS011;60776;51.702;7.462;2023-08-30T00:40:14;3.40;;;3.20;;
59233;SDS011;60776;51.702;7.462;2023-08-30T00:42:39;3.72;;;2.95;;
59233;SDS011;60776;51.702;7.462;2023-08-30T00:45:06;4.07;;;3.78;;
59233;SDS011;60776;51.702;7.462;2023-08-30T00:47:32;4.03;;;3.65;;
59233;SDS011;60776;51.702;7.462;2023-08-30T00:49:58;3.45;;;3.15;;
59233;SDS011;60776;51.702;7.462;2023-08-30T00:52:24;5.18;;;4.25;;
59233;SDS011;60776;51.702;7.462;2023-08-30T00:54:49;4.95;;;4.50;;
59233;SDS011;60776;51.702;7.462;2023-08-30T00:57:15;5.20;;;4.60;;
59233;SDS011;60776;51.702;7.462;2023-08-30T00:59:41;4.40;;;4.10;;
59233;SDS011;60776;51.702;7.462;2023-08-30T01:02:07;4.18;;;3.42;;
59233;SDS011;60776;51.702;7.462;2023-08-30T01:04:33;4.00;;;3.60;;
59233;SDS011;60776;51.702;7.462;2023-08-30T01:06:59;5.30;;;4.80;;
59233;SDS011;60776;51.702;7.462;2023-08-30T01:09:24;4.63;;;4.18;;
59233;SDS011;60776;51.702;7.462;2023-08-30T01:11:57;5.20;;;4.70;;
59233;SDS011;60776;51.702;7.462;2023-08-30T01:14:26;5.03;;;4.60;;
59233;SDS011;60776;51.702;7.462;2023-08-30T01:17:05;5.15;;;4.75;;
59233;SDS011;60776;51.702;7.462;2023-08-30T01:24:45;4.85;;;4.45;;
59233;SDS011;60776;51.702;7.462;2023-08-30T01:27:25;5.65;;;5.15;;
59233;SDS011;60776;51.702;7.462;2023-08-30T01:29:52;8.80;;;7.90;;
59233;SDS011;60776;51.702;7.462;2023-08-30T01:32:21;8.98;;;8.15;;
59233;SDS011;60776;51.702;7.462;2023-08-30T01:34:53;7.05;;;6.38;;
59233;SDS011;60776;51.702;7.462;2023-08-30T01:37:20;13.90;;;10.38;;
59233;SDS011;60776;51.702;7.462;2023-08-30T01:39:46;8.48;;;7.78;;
59233;SDS011;60776;51.702;7.462;2023-08-30T01:42:13;8.30;;;7.50;;
59233;SDS011;60776;51.702;7.462;2023-08-30T01:44:40;8.82;;;7.93;;
59233;SDS011;60776;51.702;7.462;2023-08-30T01:47:09;6.82;;;6.22;;
59233;SDS011;60776;51.702;7.462;2023-08-30T01:49:36;6.43;;;5.82;;
59233;SDS011;60776;51.702;7.462;2023-08-30T01:52:04;6.47;;;5.90;;
59233;SDS011;60776;51.702;7.462;2023-08-30T01:54:31;5.90;;;5.40;;
59233;SDS011;60776;51.702;7.462;2023-08-30T01:56:57;8.60;;;7.90;;
59233;SDS011;60776;51.702;7.462;2023-08-30T01:59:24;6.32;;;5.75;;
59233;SDS011;60776;51.702;7.462;2023-08-30T02:01:52;7.13;;;6.55;;
59233;SDS011;60776;51.702;7.462;2023-08-30T02:04:17;7.60;;;6.90;;
59233;SDS011;60776;51.702;7.462;2023-08-30T02:07:04;8.75;;;7.95;;
59233;SDS011;60776;51.702;7.462;2023-08-30T02:09:34;7.43;;;6.47;;
59233;SDS011;60776;51.702;7.462;2023-08-30T02:12:13;6.75;;;6.20;;
59233;SDS011;60776;51.702;7.462;2023-08-30T02:14:45;6.88;;;6.28;;
59233;SDS011;60776;51.702;7.462;2023-08-30T02:17:15;10.50;;;9.57;;
59233;SDS011;60776;51.702;7.462;2023-08-30T02:19:43;7.70;;;7.00;;
59233;SDS011;60776;51.702;7.462;2023-08-30T02:22:09;6.53;;;6.03;;
59233;SDS011;60776;51.702;7.462;2023-08-30T02:24:35;6.07;;;5.57;;
59233;SDS011;60776;51.702;7.462;2023-08-30T02:27:01;8.68;;;7.13;;
59233;SDS011;60776;51.702;7.462;2023-08-30T02:29:27;6.88;;;6.18;;
59233;SDS011;60776;51.702;7.462;2023-08-30T02:31:52;7.10;;;6.47;;
59233;SDS011;60776;51.702;7.462;2023-08-30T02:34:18;8.82;;;7.93;;
59233;SDS011;60776;51.702;7.462;2023-08-30T02:36:44;7.95;;;7.22;;
59233;SDS011;60776;51.702;7.462;2023-08-30T02:39:10;10.70;;;8.65;;
59233;SDS011;60776;51.702;7.462;2023-08-30T02:41:36;7.30;;;6.70;;
59233;SDS011;60776;51.702;7.462;2023-08-30T02:44:02;7.45;;;6.75;;
59233;SDS011;60776;51.702;7.462;2023-08-30T02:46:28;7.95;;;7.00;;
59233;SDS011;60776;51.702;7.462;2023-08-30T02:48:54;7.65;;;6.95;;
59233;SDS011;60776;51.702;7.462;2023-08-30T02:51:20;7.72;;;7.05;;
59233;SDS011;60776;51.702;7.462;2023-08-30T02:53:46;7.28;;;6.47;;
59233;SDS011;60776;51.702;7.462;2023-08-30T02:56:11;8.98;;;7.88;;
59233;SDS011;60776;51.702;7.462;2023-08-30T02:58:39;9.43;;;8.63;;
59233;SDS011;60776;51.702;7.462;2023-08-30T03:01:06;9.60;;;8.70;;
59233;SDS011;60776;51.702;7.462;2023-08-30T03:03:32;8.70;;;7.78;;
59233;SDS011;60776;51.702;7.462;2023-08-30T03:05:57;9.82;;;8.82;;
59233;SDS011;60776;51.702;7.462;2023-08-30T03:08:23;10.55;;;9.60;;
59233;SDS011;60776;51.702;7.462;2023-08-30T03:10:49;10.38;;;9.38;;
59233;SDS011;60776;51.702;7.462;2023-08-30T03:13:14;10.00;;;9.10;;
59233;SDS011;60776;51.702;7.462;2023-08-30T03:15:40;9.75;;;8.75;;
59233;SDS011;60776;51.702;7.462;2023-08-30T03:18:05;9.13;;;8.25;;
59233;SDS011;60776;51.702;7.462;2023-08-30T03:20:31;10.02;;;8.32;;
59233;SDS011;60776;51.702;7.462;2023-08-30T03:22:57;12.63;;;10.30;;
59233;SDS011;60776;51.702;7.462;2023-08-30T03:25:23;13.30;;;12.02;;
59233;SDS011;60776;51.702;7.462;2023-08-30T03:27:49;10.98;;;9.98;;
59233;SDS011;60776;51.702;7.462;2023-08-30T03:30:14;11.25;;;10.18;;
59233;SDS011;60776;51.702;7.462;2023-08-30T03:32:40;10.95;;;9.95;;
59233;SDS011;60776;51.702;7.462;2023-08-30T03:35:06;10.40;;;9.40;;
59233;SDS011;60776;51.702;7.462;2023-08-30T03:37:33;11.77;;;10.52;;
59233;SDS011;60776;51.702;7.462;2023-08-30T03:39:58;12.38;;;11.18;;
59233;SDS011;60776;51.702;7.462;2023-08-30T03:42:24;12.40;;;11.20;;
59233;SDS011;60776;51.702;7.462;2023-08-30T03:44:50;11.02;;;10.02;;
59233;SDS011;60776;51.702;7.462;2023-08-30T03:47:15;11.05;;;10.05;;
59233;SDS011;60776;51.702;7.462;2023-08-30T03:49:41;10.80;;;9.90;;
59233;SDS011;60776;51.702;7.462;2023-08-30T03:52:08;12.15;;;10.85;;
59233;SDS011;60776;51.702;7.462;2023-08-30T03:54:34;11.70;;;10.50;;
59233;SDS011;60776;51.702;7.462;2023-08-30T03:56:59;10.15;;;9.05;;
59233;SDS011;60776;51.702;7.462;2023-08-30T03:59:25;14.25;;;12.85;;
59233;SDS011;60776;51.702;7.462;2023-08-30T04:01:52;15.73;;;13.82;;
59233;SDS011;60776;51.702;7.462;2023-08-30T04:04:18;15.73;;;14.20;;
59233;SDS011;60776;51.702;7.462;2023-08-30T04:06:44;14.32;;;12.93;;
59233;SDS011;60776;51.702;7.462;2023-08-30T04:09:09;15.55;;;13.95;;
59233;SDS011;60776;51.702;7.462;2023-08-30T04:11:35;14.00;;;12.65;;
59233;SDS011;60776;51.702;7.462;2023-08-30T04:14:01;12.77;;;11.57;;
59233;SDS011;60776;51.702;7.462;2023-08-30T04:16:27;14.85;;;13.48;;
59233;SDS011;60776;51.702;7.462;2023-08-30T04:18:53;12.15;;;11.07;;
59233;SDS011;60776;51.702;7.462;2023-08-30T04:21:19;13.00;;;11.70;;
59233;SDS011;60776;51.702;7.462;2023-08-30T04:23:45;14.88;;;13.38;;
59233;SDS011;60776;51.702;7.462;2023-08-30T04:26:12;15.07;;;12.77;;
59233;SDS011;60776;51.702;7.462;2023-08-30T04:28:38;18.50;;;16.58;;
59233;SDS011;60776;51.702;7.462;2023-08-30T04:31:04;16.80;;;14.90;;
59233;SDS011;60776;51.702;7.462;2023-08-30T04:33:30;13.80;;;12.60;;
59233;SDS011;60776;51.702;7.462;2023-08-30T04:35:55;14.93;;;13.52;;
59233;SDS011;60776;51.702;7.462;2023-08-30T04:38:21;14.43;;;12.77;;
59233;SDS011;60776;51.702;7.462;2023-08-30T04:40:47;15.52;;;13.95;;
59233;SDS011;60776;51.702;7.462;2023-08-30T04:43:13;20.52;;;17.48;;
59233;SDS011;60776;51.702;7.462;2023-08-30T04:45:39;21.83;;;19.63;;
59233;SDS011;60776;51.702;7.462;2023-08-30T04:48:05;18.05;;;16.17;;
59233;SDS011;60776;51.702;7.462;2023-08-30T04:50:31;16.23;;;14.63;;
59233;SDS011;60776;51.702;7.462;2023-08-30T04:52:57;16.58;;;14.88;;
59233;SDS011;60776;51.702;7.462;2023-08-30T04:55:28;18.55;;;16.48;;
59233;SDS011;60776;51.702;7.462;2023-08-30T04:57:54;19.30;;;17.10;;
59233;SDS011;60776;51.702;7.462;2023-08-30T05:00:20;20.08;;;17.83;;
59233;SDS011;60776;51.702;7.462;2023-08-30T05:02:46;18.98;;;17.00;;
59233;SDS011;60776;51.702;7.462;2023-08-30T05:05:12;20.25;;;18.17;;
59233;SDS011;60776;51.702;7.462;2023-08-30T05:07:38;22.75;;;19.80;;
59233;SDS011;60776;51.702;7.462;2023-08-30T05:10:04;21.73;;;17.88;;
59233;SDS011;60776;51.702;7.462;2023-08-30T05:12:31;21.42;;;19.17;;
59233;SDS011;60776;51.702;7.462;2023-08-30T05:15:00;14.75;;;13.35;;
59233;SDS011;60776;51.702;7.462;2023-08-30T05:17:26;20.58;;;17.30;;
59233;SDS011;60776;51.702;7.462;2023-08-30T05:19:54;16.30;;;14.73;;
59233;SDS011;60776;51.702;7.462;2023-08-30T05:22:20;16.08;;;14.52;;
59233;SDS011;60776;51.702;7.462;2023-08-30T05:24:45;13.85;;;12.43;;
59233;SDS011;60776;51.702;7.462;2023-08-30T05:27:11;21.33;;;17.67;;
59233;SDS011;60776;51.702;7.462;2023-08-30T05:29:38;20.67;;;18.65;;
59233;SDS011;60776;51.702;7.462;2023-08-30T05:32:03;14.73;;;13.32;;
59233;SDS011;60776;51.702;7.462;2023-08-30T05:34:29;18.85;;;16.90;;
59233;SDS011;60776;51.702;7.462;2023-08-30T05:36:58;19.02;;;17.05;;
59233;SDS011;60776;51.702;7.462;2023-08-30T05:39:23;21.33;;;19.23;;
59233;SDS011;60776;51.702;7.462;2023-08-30T05:41:49;21.30;;;18.95;;
59233;SDS011;60776;51.702;7.462;2023-08-30T05:44:14;21.88;;;19.10;;
59233;SDS011;60776;51.702;7.462;2023-08-30T05:46:40;19.30;;;17.30;;
59233;SDS011;60776;51.702;7.462;2023-08-30T05:49:06;19.48;;;17.50;;
59233;SDS011;60776;51.702;7.462;2023-08-30T05:51:31;22.58;;;20.00;;
59233;SDS011;60776;51.702;7.462;2023-08-30T05:53:57;21.55;;;19.35;;
59233;SDS011;60776;51.702;7.462;2023-08-30T05:56:22;21.17;;;18.98;;
59233;SDS011;60776;51.702;7.462;2023-08-30T05:58:50;21.80;;;19.52;;
59233;SDS011;60776;51.702;7.462;2023-08-30T06:01:17;21.05;;;18.95;;
59233;SDS011;60776;51.702;7.462;2023-08-30T06:03:44;20.92;;;17.23;;
59233;SDS011;60776;51.702;7.462;2023-08-30T06:06:11;21.33;;;19.27;;
59233;SDS011;60776;51.702;7.462;2023-08-30T06:08:36;25.63;;;23.10;;
59233;SDS011;60776;51.702;7.462;2023-08-30T06:11:02;23.90;;;21.52;;
59233;SDS011;60776;51.702;7.462;2023-08-30T06:13:27;22.30;;;19.90;;
59233;SDS011;60776;51.702;7.462;2023-08-30T06:15:53;20.27;;;18.13;;
59233;SDS011;60776;51.702;7.462;2023-08-30T06:18:19;20.17;;;18.23;;
59233;SDS011;60776;51.702;7.462;2023-08-30T06:20:45;17.38;;;15.68;;
59233;SDS011;60776;51.702;7.462;2023-08-30T06:23:11;20.10;;;18.00;;
59233;SDS011;60776;51.702;7.462;2023-08-30T06:25:37;22.75;;;19.65;;
59233;SDS011;60776;51.702;7.462;2023-08-30T06:28:05;23.05;;;20.88;;
59233;SDS011;60776;51.702;7.462;2023-08-30T06:30:30;21.17;;;19.10;;
59233;SDS011;60776;51.702;7.462;2023-08-30T06:32:56;19.77;;;17.77;;
59233;SDS011;60776;51.702;7.462;2023-08-30T06:35:22;23.67;;;21.35;;
59233;SDS011;60776;51.702;7.462;2023-08-30T06:37:48;19.88;;;17.80;;
59233;SDS011;60776;51.702;7.462;2023-08-30T06:40:14;21.05;;;19.02;;
59233;SDS011;60776;51.702;7.462;2023-08-30T06:42:40;20.48;;;18.48;;
59233;SDS011;60776;51.702;7.462;2023-08-30T06:45:06;24.25;;;18.20;;
59233;SDS011;60776;51.702;7.462;2023-08-30T06:47:31;19.65;;;17.55;;
59233;SDS011;60776;51.702;7.462;2023-08-30T06:49:57;19.77;;;17.67;;
59233;SDS011;60776;51.702;7.462;2023-08-30T06:52:26;19.90;;;17.85;;
59233;SDS011;60776;51.702;7.462;2023-08-30T06:54:52;17.98;;;16.13;;
59233;SDS011;60776;51.702;7.462;2023-08-30T06:57:20;18.55;;;16.75;;
59233;SDS011;60776;51.702;7.462;2023-08-30T06:59:46;19.95;;;18.02;;
59233;SDS011;60776;51.702;7.462;2023-08-30T07:02:12;19.77;;;17.88;;
59233;SDS011;60776;51.702;7.462;2023-08-30T07:04:39;21.27;;;19.10;;
59233;SDS011;60776;51.702;7.462;2023-08-30T07:07:07;18.90;;;17.13;;
59233;SDS011;60776;51.702;7.462;2023-08-30T07:09:35;20.73;;;18.75;;
59233;SDS011;60776;51.702;7.462;2023-08-30T07:12:00;20.38;;;18.58;;
59233;SDS011;60776;51.702;7.462;2023-08-30T07:14:26;20.25;;;18.35;;
59233;SDS011;60776;51.702;7.462;2023-08-30T07:16:52;20.75;;;18.90;;
59233;SDS011;60776;51.702;7.462;2023-08-30T07:19:17;19.40;;;17.60;;
59233;SDS011;60776;51.702;7.462;2023-08-30T07:21:43;21.25;;;19.15;;
59233;SDS011;60776;51.702;7.462;2023-08-30T07:24:08;22.52;;;20.40;;
59233;SDS011;60776;51.702;7.462;2023-08-30T07:26:34;19.27;;;17.55;;
59233;SDS011;60776;51.702;7.462;2023-08-30T07:29:01;19.83;;;18.02;;
59233;SDS011;60776;51.702;7.462;2023-08-30T07:31:27;21.02;;;19.20;;
59233;SDS011;60776;51.702;7.462;2023-08-30T07:33:52;21.20;;;19.20;;
59233;SDS011;60776;51.702;7.462;2023-08-30T07:36:18;18.45;;;16.65;;
59233;SDS011;60776;51.702;7.462;2023-08-30T07:38:43;18.92;;;17.17;;
59233;SDS011;60776;51.702;7.462;2023-08-30T07:41:09;20.67;;;18.63;;
59233;SDS011;60776;51.702;7.462;2023-08-30T07:43:35;21.42;;;19.40;;
59233;SDS011;60776;51.702;7.462;2023-08-30T07:46:01;17.38;;;15.70;;
59233;SDS011;60776;51.702;7.462;2023-08-30T07:48:27;20.92;;;18.83;;
59233;SDS011;60776;51.702;7.462;2023-08-30T07:50:52;21.13;;;18.90;;
59233;SDS011;60776;51.702;7.462;2023-08-30T07:53:18;20.77;;;18.83;;
59233;SDS011;60776;51.702;7.462;2023-08-30T07:55:47;22.67;;;20.67;;
59233;SDS011;60776;51.702;7.462;2023-08-30T07:58:19;20.92;;;18.92;;
59233;SDS011;60776;51.702;7.462;2023-08-30T08:00:44;18.52;;;16.83;;
59233;SDS011;60776;51.702;7.462;2023-08-30T08:03:10;20.20;;;18.13;;
59233;SDS011;60776;51.702;7.462;2023-08-30T08:05:36;17.40;;;15.90;;
59233;SDS011;60776;51.702;7.462;2023-08-30T08:08:02;15.30;;;12.77;;
59233;SDS011;60776;51.702;7.462;2023-08-30T08:10:32;15.98;;;14.45;;
59233;SDS011;60776;51.702;7.462;2023-08-30T08:13:01;16.58;;;15.02;;
59233;SDS011;60776;51.702;7.462;2023-08-30T08:15:27;14.27;;;12.98;;
59233;SDS011;60776;51.702;7.462;2023-08-30T08:17:55;14.35;;;13.07;;
59233;SDS011;60776;51.702;7.462;2023-08-30T08:20:21;13.88;;;12.63;;
59233;SDS011;60776;51.702;7.462;2023-08-30T08:22:47;14.88;;;13.10;;
59233;SDS011;60776;51.702;7.462;2023-08-30T08:25:13;13.75;;;12.43;;
59233;SDS011;60776;51.702;7.462;2023-08-30T08:27:41;13.15;;;11.88;;
59233;SDS011;60776;51.702;7.462;2023-08-30T08:30:07;14.25;;;12.93;;
59233;SDS011;60776;51.702;7.462;2023-08-30T08:32:34;16.08;;;14.57;;
59233;SDS011;60776;51.702;7.462;2023-08-30T08:35:00;14.60;;;13.35;;
59233;SDS011;60776;51.702;7.462;2023-08-30T08:37:26;15.80;;;14.45;;
59233;SDS011;60776;51.702;7.462;2023-08-30T08:39:52;12.52;;;11.43;;
59233;SDS011;60776;51.702;7.462;2023-08-30T08:42:18;13.35;;;12.05;;
59233;SDS011;60776;51.702;7.462;2023-08-30T08:44:47;13.02;;;11.73;;
59233;SDS011;60776;51.702;7.462;2023-08-30T08:47:19;14.18;;;12.95;;
59233;SDS011;60776;51.702;7.462;2023-08-30T08:49:49;12.52;;;11.23;;
59233;SDS011;60776;51.702;7.462;2023-08-30T08:52:15;10.82;;;9.70;;
59233;SDS011;60776;51.702;7.462;2023-08-30T08:54:41;10.18;;;9.18;;
59233;SDS011;60776;51.702;7.462;2023-08-30T08:57:08;10.80;;;9.80;;
59233;SDS011;60776;51.702;7.462;2023-08-30T08:59:34;9.38;;;8.35;;
59233;SDS011;60776;51.702;7.462;2023-08-30T09:02:01;7.72;;;6.90;;
59233;SDS011;60776;51.702;7.462;2023-08-30T09:04:28;8.23;;;7.53;;
59233;SDS011;60776;51.702;7.462;2023-08-30T09:06:56;8.65;;;7.75;;
59233;SDS011;60776;51.702;7.462;2023-08-30T09:09:23;9.27;;;8.48;;
59233;SDS011;60776;51.702;7.462;2023-08-30T09:11:49;7.90;;;6.70;;
59233;SDS011;60776;51.702;7.462;2023-08-30T09:14:14;9.25;;;7.40;;
59233;SDS011;60776;51.702;7.462;2023-08-30T09:16:40;7.65;;;6.03;;
59233;SDS011;60776;51.702;7.462;2023-08-30T09:19:06;6.75;;;5.53;;
59233;SDS011;60776;51.702;7.462;2023-08-30T09:21:32;6.70;;;4.65;;
59233;SDS011;60776;51.702;7.462;2023-08-30T09:23:59;4.30;;;3.90;;
59233;SDS011;60776;51.702;7.462;2023-08-30T09:26:29;6.28;;;3.95;;
59233;SDS011;60776;51.702;7.462;2023-08-30T09:29:01;4.75;;;4.05;;
59233;SDS011;60776;51.702;7.462;2023-08-30T09:31:39;4.45;;;3.83;;
59233;SDS011;60776;51.702;7.462;2023-08-30T09:34:07;3.47;;;3.17;;
59233;SDS011;60776;51.702;7.462;2023-08-30T09:36:34;3.25;;;2.95;;
59233;SDS011;60776;51.702;7.462;2023-08-30T09:39:04;4.90;;;4.00;;
59233;SDS011;60776;51.702;7.462;2023-08-30T09:41:30;4.03;;;3.70;;
59233;SDS011;60776;51.702;7.462;2023-08-30T09:43:58;4.55;;;3.55;;
59233;SDS011;60776;51.702;7.462;2023-08-30T09:46:24;5.07;;;3.58;;
59233;SDS011;60776;51.702;7.462;2023-08-30T09:48:50;6.93;;;3.88;;
59233;SDS011;60776;51.702;7.462;2023-08-30T09:51:16;4.63;;;3.50;;
59233;SDS011;60776;51.702;7.462;2023-08-30T09:53:45;3.97;;;3.63;;
59233;SDS011;60776;51.702;7.462;2023-08-30T09:56:18;4.55;;;4.15;;
59233;SDS011;60776;51.702;7.462;2023-08-30T09:58:44;5.32;;;4.07;;
59233;SDS011;60776;51.702;7.462;2023-08-30T10:01:11;4.43;;;3.72;;
59233;SDS011;60776;51.702;7.462;2023-08-30T10:03:37;5.90;;;3.72;;
59233;SDS011;60776;51.702;7.462;2023-08-30T10:06:05;4.00;;;3.35;;
59233;SDS011;60776;51.702;7.462;2023-08-30T10:08:33;6.10;;;3.70;;
59233;SDS011;60776;51.702;7.462;2023-08-30T10:11:01;4.35;;;3.35;;
59233;SDS011;60776;51.702;7.462;2023-08-30T10:13:29;6.97;;;4.35;;
59233;SDS011;60776;51.702;7.462;2023-08-30T10:15:58;3.75;;;3.45;;
59233;SDS011;60776;51.702;7.462;2023-08-30T10:18:28;4.60;;;3.70;;
59233;SDS011;60776;51.702;7.462;2023-08-30T10:20:57;3.92;;;3.50;;
59233;SDS011;60776;51.702;7.462;2023-08-30T10:23:25;5.07;;;3.53;;
59233;SDS011;60776;51.702;7.462;2023-08-30T10:25:53;5.38;;;4.00;;
59233;SDS011;60776;51.702;7.462;2023-08-30T10:28:19;8.18;;;4.00;;
59233;SDS011;60776;51.702;7.462;2023-08-30T10:30:49;8.93;;;4.63;;
59233;SDS011;60776;51.702;7.462;2023-08-30T10:33:16;5.18;;;3.80;;
59233;SDS011;60776;51.702;7.462;2023-08-30T10:35:49;4.93;;;4.53;;
59233;SDS011;60776;51.702;7.462;2023-08-30T10:38:28;5.07;;;4.60;;
59233;SDS011;60776;51.702;7.462;2023-08-30T10:40:55;6.00;;;4.72;;
59233;SDS011;60776;51.702;7.462;2023-08-30T10:43:34;5.07;;;4.43;;
59233;SDS011;60776;51.702;7.462;2023-08-30T10:46:01;6.85;;;6.15;;
59233;SDS011;60776;51.702;7.462;2023-08-30T10:48:34;6.38;;;5.78;;
59233;SDS011;60776;51.702;7.462;2023-08-30T10:51:01;7.47;;;6.72;;
59233;SDS011;60776;51.702;7.462;2023-08-30T10:53:29;5.55;;;5.05;;
59233;SDS011;60776;51.702;7.462;2023-08-30T10:56:11;5.45;;;4.78;;
59233;SDS011;60776;51.702;7.462;2023-08-30T10:58:43;7.53;;;6.50;;
59233;SDS011;60776;51.702;7.462;2023-08-30T11:01:10;4.20;;;3.80;;
59233;SDS011;60776;51.702;7.462;2023-08-30T11:03:38;6.47;;;5.68;;
59233;SDS011;60776;51.702;7.462;2023-08-30T11:06:05;5.80;;;4.97;;
59233;SDS011;60776;51.702;7.462;2023-08-30T11:08:30;7.15;;;4.68;;
59233;SDS011;60776;51.702;7.462;2023-08-30T11:11:03;4.45;;;4.05;;
59233;SDS011;60776;51.702;7.462;2023-08-30T11:13:30;3.75;;;3.17;;
59233;SDS011;60776;51.702;7.462;2023-08-30T11:16:02;4.30;;;3.38;;
59233;SDS011;60776;51.702;7.462;2023-08-30T11:18:29;4.25;;;3.63;;
59233;SDS011;60776;51.702;7.462;2023-08-30T11:21:01;5.05;;;4.57;;
59233;SDS011;60776;51.702;7.462;2023-08-30T11:23:27;4.05;;;3.50;;
59233;SDS011;60776;51.702;7.462;2023-08-30T11:25:53;4.70;;;4.15;;
59233;SDS011;60776;51.702;7.462;2023-08-30T11:28:22;4.68;;;4.28;;
59233;SDS011;60776;51.702;7.462;2023-08-30T11:30:49;4.93;;;4.32;;
59233;SDS011;60776;51.702;7.462;2023-08-30T11:33:17;4.75;;;4.35;;
59233;SDS011;60776;51.702;7.462;2023-08-30T11:35:44;4.47;;;4.07;;
59233;SDS011;60776;51.702;7.462;2023-08-30T11:38:10;5.55;;;5.13;;
59233;SDS011;60776;51.702;7.462;2023-08-30T11:40:36;11.60;;;5.50;;
59233;SDS011;60776;51.702;7.462;2023-08-30T11:43:02;7.85;;;6.72;;
59233;SDS011;60776;51.702;7.462;2023-08-30T11:45:28;9.35;;;7.22;;
59233;SDS011;60776;51.702;7.462;2023-08-30T11:47:58;8.52;;;6.50;;
59233;SDS011;60776;51.702;7.462;2023-08-30T11:50:25;7.45;;;6.75;;
59233;SDS011;60776;51.702;7.462;2023-08-30T11:52:51;10.02;;;9.02;;
59233;SDS011;60776;51.702;7.462;2023-08-30T11:55:18;9.68;;;8.68;;
59233;SDS011;60776;51.702;7.462;2023-08-30T11:57:47;11.60;;;9.65;;
59233;SDS011;60776;51.702;7.462;2023-08-30T12:00:14;8.50;;;7.63;;
59233;SDS011;60776;51.702;7.462;2023-08-30T12:02:40;10.32;;;9.43;;
59233;SDS011;60776;51.702;7.462;2023-08-30T12:05:10;10.60;;;9.45;;
59233;SDS011;60776;51.702;7.462;2023-08-30T12:07:36;12.90;;;10.73;;
59233;SDS011;60776;51.702;7.462;2023-08-30T12:10:06;14.32;;;12.57;;
59233;SDS011;60776;51.702;7.462;2023-08-30T12:12:35;30.98;;;15.75;;
59233;SDS011;60776;51.702;7.462;2023-08-30T12:15:07;18.85;;;15.63;;
59233;SDS011;60776;51.702;7.462;2023-08-30T12:17:35;16.65;;;13.38;;
59233;SDS011;60776;51.702;7.462;2023-08-30T12:20:02;19.75;;;15.70;;
59233;SDS011;60776;51.702;7.462;2023-08-30T12:22:38;13.75;;;12.45;;
59233;SDS011;60776;51.702;7.462;2023-08-30T12:25:04;13.55;;;11.68;;
59233;SDS011;60776;51.702;7.462;2023-08-30T12:27:43;15.45;;;13.90;;
59233;SDS011;60776;51.702;7.462;2023-08-30T12:30:08;13.70;;;11.68;;
59233;SDS011;60776;51.702;7.462;2023-08-30T12:32:34;12.38;;;11.13;;
59233;SDS011;60776;51.702;7.462;2023-08-30T12:35:00;12.48;;;11.27;;
59233;SDS011;60776;51.702;7.462;2023-08-30T12:37:25;15.15;;;13.30;;
59233;SDS011;60776;51.702;7.462;2023-08-30T12:39:51;18.52;;;15.90;;
59233;SDS011;60776;51.702;7.462;2023-08-30T12:42:17;11.77;;;10.68;;
59233;SDS011;60776;51.702;7.462;2023-08-30T12:44:42;11.88;;;10.75;;
59233;SDS011;60776;51.702;7.462;2023-08-30T12:47:11;11.63;;;10.52;;
59233;SDS011;60776;51.702;7.462;2023-08-30T12:49:39;9.15;;;8.05;;
59233;SDS011;60776;51.702;7.462;2023-08-30T12:52:05;10.45;;;9.45;;
59233;SDS011;60776;51.702;7.462;2023-08-30T12:54:31;8.27;;;7.47;;
59233;SDS011;60776;51.702;7.462;2023-08-30T12:56:56;9.82;;;8.13;;
59233;SDS011;60776;51.702;7.462;2023-08-30T12:59:22;7.60;;;6.72;;
59233;SDS011;60776;51.702;7.462;2023-08-30T13:01:47;7.75;;;7.03;;
59233;SDS011;60776;51.702;7.462;2023-08-30T13:04:13;10.93;;;9.85;;
59233;SDS011;60776;51.702;7.462;2023-08-30T13:06:39;8.93;;;8.07;;
59233;SDS011;60776;51.702;7.462;2023-08-30T13:09:04;9.60;;;8.80;;
59233;SDS011;60776;51.702;7.462;2023-08-30T13:11:30;9.50;;;8.68;;
59233;SDS011;60776;51.702;7.462;2023-08-30T13:13:57;8.63;;;7.82;;
59233;SDS011;60776;51.702;7.462;2023-08-30T13:16:23;6.82;;;6.22;;
59233;SDS011;60776;51.702;7.462;2023-08-30T13:18:49;7.35;;;6.68;;
59233;SDS011;60776;51.702;7.462;2023-08-30T13:21:15;5.72;;;5.22;;
59233;SDS011;60776;51.702;7.462;2023-08-30T13:23:41;7.00;;;5.95;;
59233;SDS011;60776;51.702;7.462;2023-08-30T13:26:06;6.65;;;6.15;;
59233;SDS011;60776;51.702;7.462;2023-08-30T13:28:32;6.43;;;5.93;;
59233;SDS011;60776;51.702;7.462;2023-08-30T13:30:59;5.53;;;5.10;;
59233;SDS011;60776;51.702;7.462;2023-08-30T13:33:28;5.07;;;4.03;;
59233;SDS011;60776;51.702;7.462;2023-08-30T13:35:56;4.88;;;4.47;;
59233;SDS011;60776;51.702;7.462;2023-08-30T13:38:21;6.78;;;6.28;;
59233;SDS011;60776;51.702;7.462;2023-08-30T13:40:48;4.85;;;4.45;;
59233;SDS011;60776;51.702;7.462;2023-08-30T13:43:13;5.28;;;4.88;;
59233;SDS011;60776;51.702;7.462;2023-08-30T13:45:39;5.13;;;4.72;;
59233;SDS011;60776;51.702;7.462;2023-08-30T13:48:07;5.82;;;5.25;;
59233;SDS011;60776;51.702;7.462;2023-08-30T13:50:40;5.35;;;4.95;;
59233;SDS011;60776;51.702;7.462;2023-08-30T13:53:06;4.70;;;4.30;;
59233;SDS011;60776;51.702;7.462;2023-08-30T13:55:31;6.13;;;5.63;;
59233;SDS011;60776;51.702;7.462;2023-08-30T13:57:58;6.32;;;5.82;;
59233;SDS011;60776;51.702;7.462;2023-08-30T14:00:24;6.03;;;5.43;;
59233;SDS011;60776;51.702;7.462;2023-08-30T14:02:49;4.60;;;4.20;;
59233;SDS011;60776;51.702;7.462;2023-08-30T14:05:16;5.30;;;4.88;;
59233;SDS011;60776;51.702;7.462;2023-08-30T14:07:43;6.10;;;5.60;;
59233;SDS011;60776;51.702;7.462;2023-08-30T14:10:08;5.55;;;5.07;;
59233;SDS011;60776;51.702;7.462;2023-08-30T14:12:36;4.63;;;4.22;;
59233;SDS011;60776;51.702;7.462;2023-08-30T14:15:02;6.57;;;5.97;;
59233;SDS011;60776;51.702;7.462;2023-08-30T14:17:28;6.68;;;6.05;;
59233;SDS011;60776;51.702;7.462;2023-08-30T14:19:56;8.80;;;5.93;;
59233;SDS011;60776;51.702;7.462;2023-08-30T14:22:24;5.97;;;5.47;;
59233;SDS011;60776;51.702;7.462;2023-08-30T14:24:51;10.43;;;7.32;;
59233;SDS011;60776;51.702;7.462;2023-08-30T14:27:17;7.00;;;6.15;;
59233;SDS011;60776;51.702;7.462;2023-08-30T14:29:43;7.25;;;6.57;;
59233;SDS011;60776;51.702;7.462;2023-08-30T14:32:09;8.40;;;7.18;;
59233;SDS011;60776;51.702;7.462;2023-08-30T14:34:35;7.85;;;6.60;;
59233;SDS011;60776;51.702;7.462;2023-08-30T14:37:00;7.53;;;5.85;;
59233;SDS011;60776;51.702;7.462;2023-08-30T14:39:27;6.15;;;5.55;;